createdAt,value
2019-03-19T00:04:40.679Z,2.90
2019-03-19T00:09:44.944Z,2.80
2019-03-19T00:14:49.155Z,2.97
2019-03-19T00:19:53.560Z,2.43
2019-03-19T00:24:57.528Z,3.23
2019-03-19T00:30:01.873Z,2.93
2019-03-19T00:35:06.424Z,3.00
2019-03-19T00:40:10.656Z,2.93
2019-03-19T00:45:15.051Z,3.17
2019-03-19T00:50:19.355Z,2.80
2019-03-19T00:55:23.536Z,3.13
2019-03-19T01:00:28.071Z,3.50
2019-03-19T01:05:32.652Z,2.70
2019-03-19T01:10:36.938Z,2.07
2019-03-19T01:15:41.155Z,3.30
2019-03-19T01:20:45.589Z,3.60
2019-03-19T01:25:55.710Z,2.17
2019-03-19T01:30:56.469Z,2.90
2019-03-19T01:36:00.559Z,2.80
2019-03-19T01:41:04.883Z,2.60
2019-03-19T01:46:09.115Z,3.17
2019-03-19T01:51:13.689Z,2.70
2019-03-19T01:56:18.251Z,3.67
2019-03-19T02:01:22.296Z,2.93
2019-03-19T02:06:26.602Z,2.73
2019-03-19T02:11:30.918Z,2.20
2019-03-19T02:16:35.227Z,2.20
2019-03-19T02:21:39.204Z,2.60
2019-03-19T02:26:44.044Z,2.17
2019-03-19T02:31:48.077Z,2.20
2019-03-19T02:36:52.006Z,2.23
2019-03-19T02:41:55.920Z,2.60
2019-03-19T02:46:59.843Z,2.97
2019-03-19T02:52:03.779Z,2.50
2019-03-19T02:57:07.984Z,2.80
2019-03-19T03:02:11.869Z,2.90
2019-03-19T03:07:16.331Z,2.70
2019-03-19T03:12:20.545Z,2.43
2019-03-19T03:17:24.858Z,3.00
2019-03-19T03:22:28.736Z,3.33
2019-03-19T03:27:32.856Z,3.03
2019-03-19T03:32:36.881Z,3.57
2019-03-19T03:37:41.122Z,2.53
2019-03-19T03:42:45.309Z,3.13
2019-03-19T03:47:49.168Z,2.43
2019-03-19T03:52:53.372Z,4.97
2019-03-19T03:57:57.387Z,3.20
2019-03-19T04:03:01.598Z,3.60
2019-03-19T04:08:05.656Z,3.43
2019-03-19T04:13:09.535Z,4.30
2019-03-19T04:18:13.439Z,3.17
2019-03-19T04:23:17.381Z,3.10
2019-03-19T04:28:21.348Z,3.40
2019-03-19T04:33:25.615Z,4.67
2019-03-19T04:38:29.737Z,4.07
2019-03-19T04:43:33.708Z,4.20
2019-03-19T04:48:37.582Z,4.47
2019-03-19T04:53:41.853Z,4.80
2019-03-19T04:58:46.051Z,3.47
2019-03-19T05:03:50.919Z,3.80
2019-03-19T05:08:55.347Z,4.03
2019-03-19T05:13:59.226Z,4.63
2019-03-19T05:19:03.777Z,4.07
2019-03-19T05:24:07.988Z,4.30
2019-03-19T05:29:11.847Z,5.10
2019-03-19T05:34:15.792Z,4.60
2019-03-19T05:39:19.671Z,4.10
2019-03-19T05:44:23.857Z,6.03
2019-03-19T05:49:28.055Z,5.27
2019-03-19T05:54:32.171Z,4.87
2019-03-19T05:59:36.052Z,4.83
2019-03-19T06:04:40.170Z,5.30
2019-03-19T06:09:44.367Z,4.80
2019-03-19T06:14:48.561Z,5.60
2019-03-19T06:19:52.696Z,4.47
2019-03-19T06:24:56.555Z,5.63
2019-03-19T06:30:00.682Z,4.23
2019-03-19T06:35:04.943Z,5.20
2019-03-19T06:40:10.541Z,5.37
2019-03-19T06:45:14.706Z,5.77
2019-03-19T06:50:18.942Z,5.47
2019-03-19T06:55:22.951Z,5.20
2019-03-19T07:00:27.171Z,4.70
2019-03-19T07:05:31.321Z,5.00
2019-03-19T07:10:35.695Z,5.80
2019-03-19T07:15:40.096Z,4.87
2019-03-19T07:20:44.376Z,5.93
2019-03-19T07:25:48.915Z,5.90
2019-03-19T07:30:53.134Z,5.97
2019-03-19T07:35:57.291Z,6.53
2019-03-19T07:41:01.709Z,6.00
2019-03-19T07:46:06.004Z,5.93
2019-03-19T07:51:10.405Z,5.77
2019-03-19T07:56:15.084Z,5.37
2019-03-19T08:01:19.239Z,6.47
2019-03-19T08:06:23.671Z,7.07
2019-03-19T08:11:27.615Z,5.90
2019-03-19T08:16:31.587Z,5.67
2019-03-19T08:21:35.533Z,5.90
2019-03-19T08:26:39.755Z,4.90
2019-03-19T08:31:43.900Z,5.87
2019-03-19T08:36:47.752Z,5.83
2019-03-19T08:41:51.739Z,4.67
2019-03-19T08:46:55.624Z,5.10
2019-03-19T08:51:59.779Z,5.77
2019-03-19T08:57:04.226Z,4.87
2019-03-19T09:02:08.203Z,5.00
2019-03-19T09:07:12.177Z,4.67
2019-03-19T09:12:16.319Z,5.03
2019-03-19T09:17:20.511Z,5.07
2019-03-19T09:22:29.646Z,4.33
2019-03-19T09:27:30.663Z,4.50
2019-03-19T09:32:34.581Z,4.33
2019-03-19T09:37:44.409Z,5.00
2019-03-19T09:42:44.500Z,4.47
2019-03-19T09:47:48.610Z,5.13
2019-03-19T09:52:52.917Z,4.50
2019-03-19T09:57:56.828Z,3.73
2019-03-19T10:03:01.208Z,4.97
2019-03-19T10:08:05.388Z,4.27
2019-03-19T10:13:09.519Z,5.17
2019-03-19T10:18:14.059Z,4.00
2019-03-19T10:23:18.211Z,3.87
2019-03-19T10:28:22.175Z,4.03
2019-03-19T10:33:26.245Z,3.20
2019-03-19T10:38:30.440Z,2.90
2019-03-19T10:43:34.632Z,3.67
2019-03-19T10:48:38.485Z,3.77
2019-03-19T10:53:42.353Z,2.80
2019-03-19T10:58:47.367Z,3.13
2019-03-19T11:03:51.568Z,4.30
2019-03-19T11:08:55.579Z,4.50
2019-03-19T11:13:59.954Z,2.50
2019-03-19T11:19:04.466Z,3.13
2019-03-19T11:24:08.787Z,3.60
2019-03-19T11:29:12.655Z,2.60
2019-03-19T11:34:17.130Z,3.70
2019-03-19T11:39:20.995Z,3.60
2019-03-19T11:44:24.855Z,2.20
2019-03-19T11:49:28.794Z,3.20
2019-03-19T11:54:32.676Z,3.50
2019-03-19T11:59:36.979Z,3.10
2019-03-19T12:04:41.435Z,2.43
2019-03-19T12:09:45.319Z,2.30
2019-03-19T12:14:49.167Z,2.17
2019-03-19T12:19:53.415Z,2.30
2019-03-19T12:24:58.261Z,1.97
2019-03-19T12:30:02.379Z,2.37
2019-03-19T12:35:06.874Z,1.70
2019-03-19T12:40:12.639Z,2.40
2019-03-19T12:45:16.919Z,2.70
2019-03-19T12:50:20.975Z,3.43
2019-03-19T12:55:24.966Z,3.10
2019-03-19T13:00:34.607Z,2.50
2019-03-19T13:05:35.619Z,2.57
2019-03-19T13:10:39.933Z,2.10
2019-03-19T13:15:44.041Z,2.50
2019-03-19T13:20:48.406Z,2.40
2019-03-19T13:25:52.795Z,4.12
2019-03-19T13:30:58.767Z,2.87
2019-03-19T13:36:03.293Z,3.27
2019-03-19T13:41:07.760Z,3.20
2019-03-19T13:46:11.809Z,3.97
2019-03-19T13:51:16.229Z,3.50
2019-03-19T13:56:20.978Z,3.73
2019-03-19T14:01:24.900Z,3.30
2019-03-19T14:06:29.128Z,4.53
2019-03-19T14:11:33.307Z,2.97
2019-03-19T14:16:37.268Z,4.53
2019-03-19T14:21:41.595Z,2.97
2019-03-19T14:26:45.608Z,3.33
2019-03-19T14:31:50.057Z,4.00
2019-03-19T14:36:59.045Z,2.60
2019-03-19T14:42:03.031Z,3.00
2019-03-19T14:47:07.191Z,4.33
2019-03-19T14:52:11.380Z,2.30
2019-03-19T14:57:15.555Z,2.50
2019-03-19T15:02:19.483Z,2.40
2019-03-19T15:07:24.018Z,2.40
2019-03-19T15:12:28.367Z,2.30
2019-03-19T15:17:32.414Z,2.63
2019-03-19T15:22:36.307Z,2.23
2019-03-19T15:27:40.496Z,2.60
2019-03-19T15:32:44.564Z,2.83
2019-03-19T15:37:49.349Z,2.37
2019-03-19T15:42:53.458Z,2.23
2019-03-19T15:47:57.803Z,2.80
2019-03-19T15:53:03.101Z,3.60
2019-03-19T15:58:07.339Z,2.70
2019-03-19T16:03:11.275Z,3.30
2019-03-19T16:08:15.439Z,3.37
2019-03-19T16:13:20.024Z,2.47
2019-03-19T16:18:24.452Z,3.17
2019-03-19T16:23:28.791Z,2.03
2019-03-19T16:28:32.655Z,3.23
2019-03-19T16:33:37.287Z,4.25
2019-03-19T16:38:41.159Z,3.10
2019-03-19T16:43:45.128Z,4.00
2019-03-19T16:48:49.498Z,3.07
2019-03-19T16:53:53.843Z,2.87
2019-03-19T16:58:58.476Z,2.73
2019-03-19T17:04:02.699Z,4.08
2019-03-19T17:09:07.814Z,2.60
2019-03-19T17:14:11.932Z,3.03
2019-03-19T17:19:15.815Z,2.87
2019-03-19T17:24:19.965Z,1.93
2019-03-19T17:29:24.100Z,2.90
2019-03-19T17:34:28.336Z,2.60
2019-03-19T17:39:32.694Z,2.50
2019-03-19T17:44:36.915Z,2.47
2019-03-19T17:49:41.540Z,2.40
2019-03-19T17:54:45.650Z,2.47
2019-03-19T17:59:54.111Z,2.67
2019-03-19T18:04:58.215Z,2.27
2019-03-19T18:10:02.322Z,2.67
2019-03-19T18:15:07.509Z,3.40
2019-03-19T18:20:11.767Z,4.23
2019-03-19T18:25:16.085Z,3.33
2019-03-19T18:30:20.406Z,3.30
2019-03-19T18:35:24.603Z,2.90
2019-03-19T18:40:29.331Z,3.97
2019-03-19T18:45:33.623Z,3.67
2019-03-19T18:50:38.040Z,3.33
2019-03-19T18:55:42.148Z,3.70
2019-03-19T19:00:46.135Z,3.93
2019-03-19T19:05:56.670Z,3.50
2019-03-19T19:11:00.671Z,3.60
2019-03-19T19:16:04.786Z,3.83
2019-03-19T19:21:08.699Z,3.77
2019-03-19T19:26:12.716Z,4.50
2019-03-19T19:31:16.576Z,3.03
2019-03-19T19:36:21.123Z,4.10
2019-03-19T19:41:25.392Z,3.47
2019-03-19T19:46:29.844Z,3.57
2019-03-19T19:51:33.824Z,3.60
2019-03-19T19:56:38.255Z,4.40
2019-03-19T20:01:42.470Z,3.87
2019-03-19T20:06:46.377Z,4.00
2019-03-19T20:11:50.644Z,4.13
2019-03-19T20:16:54.511Z,2.93
2019-03-19T20:21:59.071Z,4.00
2019-03-19T20:27:03.239Z,3.47
2019-03-19T20:32:07.095Z,3.93
2019-03-19T20:37:10.511Z,3.20
2019-03-19T20:42:14.692Z,4.00
2019-03-19T20:47:18.995Z,3.37
2019-03-19T20:52:23.370Z,3.87
2019-03-19T20:57:27.286Z,3.00
2019-03-19T21:02:31.395Z,2.60
2019-03-19T21:07:35.287Z,2.77
2019-03-19T21:12:40.042Z,3.00
2019-03-19T21:17:43.976Z,3.33
2019-03-19T21:22:47.828Z,3.60
2019-03-19T21:27:52.010Z,2.50
2019-03-19T21:32:55.980Z,3.30
2019-03-19T21:38:00.196Z,3.03
2019-03-19T21:43:04.323Z,2.73
2019-03-19T21:48:08.687Z,3.63
2019-03-19T21:53:13.087Z,2.80
2019-03-19T21:58:17.655Z,3.10
2019-03-19T22:03:21.579Z,3.60
2019-03-19T22:08:25.452Z,3.70
2019-03-19T22:13:29.571Z,2.60
2019-03-19T22:18:33.487Z,3.03
2019-03-19T22:23:37.964Z,2.40
2019-03-19T22:28:41.830Z,2.80
2019-03-19T22:33:45.947Z,2.60
2019-03-19T22:38:49.847Z,3.50
2019-03-19T22:43:53.992Z,3.20
2019-03-19T22:48:58.193Z,3.37
2019-03-19T22:54:02.711Z,2.80
2019-03-19T22:59:06.966Z,3.20
2019-03-19T23:04:11.398Z,3.47
2019-03-19T23:09:15.564Z,3.87
2019-03-19T23:14:20.313Z,3.57
2019-03-19T23:19:24.500Z,3.47
2019-03-19T23:24:28.674Z,3.80
2019-03-19T23:29:32.647Z,4.03
2019-03-19T23:34:38.726Z,2.90
2019-03-19T23:39:42.976Z,3.93
2019-03-19T23:44:47.142Z,3.47
2019-03-19T23:49:51.308Z,3.50
2019-03-19T23:54:55.151Z,3.47
2019-03-19T23:59:59.319Z,4.60
